Terminal Aerodrome Forecast
Issued by NWS Wilmington, NC

Home | Current Version | Previous Version | Text Only | Print | Product List | Glossary On
Versions: 1 2 3 4 5 6 7 8 9 10 11 12
000
FTUS42 KILM 212300
TAFLBT
TAF
KLBT 212322Z 2200/2224 05007KT P6SM BKN035 OVC070
     FM220600 04008KT 6SM -RA BR SCT010 BKN020
     FM220900 03009KT 4SM -RA BR FEW004 BKN008 OVC012
     FM221600 01007KT P6SM OVC008=

USA.gov is the U.S. government's official web portal to all federal, state and local government web resources and services.